createdAt,value
2022-08-05T00:00:18.627Z,101745.59
2022-08-05T00:02:51.577Z,101743.50
2022-08-05T00:06:02.816Z,101734.94
2022-08-05T00:08:34.554Z,101742.13
2022-08-05T00:11:00.533Z,101743.84
2022-08-05T00:13:39.258Z,101748.31
2022-08-05T00:16:12.164Z,101749.53
2022-08-05T00:18:49.861Z,101754.25
2022-08-05T00:21:19.032Z,101751.94
2022-08-05T00:24:05.216Z,101757.38
2022-08-05T00:26:35.961Z,101753.84
2022-08-05T00:29:03.679Z,101750.34
2022-08-05T00:31:54.148Z,101755.16
2022-08-05T00:34:56.864Z,101758.19
2022-08-05T00:37:14.226Z,101763.41
2022-08-05T00:39:58.114Z,101766.84
2022-08-05T00:42:34.893Z,101764.28
2022-08-05T00:45:04.559Z,101754.72
2022-08-05T00:47:56.410Z,101758.19
2022-08-05T00:50:20.901Z,101753.28
2022-08-05T00:52:48.999Z,101760.69
2022-08-05T00:55:16.626Z,101761.53
2022-08-05T00:57:57.933Z,101753.63
2022-08-05T01:00:31.460Z,101760.91
2022-08-05T01:03:00.025Z,101769.13
2022-08-05T01:05:28.036Z,101765.84
2022-08-05T01:08:40.997Z,101768.72
2022-08-05T01:10:51.554Z,101763.50
2022-08-05T01:13:58.316Z,101766.19
2022-08-05T01:16:33.868Z,101761.69
2022-08-05T01:19:14.389Z,101761.78
2022-08-05T01:21:55.278Z,101760.81
2022-08-05T01:24:47.660Z,101759.22
2022-08-05T01:27:55.419Z,101761.69
2022-08-05T01:30:34.112Z,101757.75
2022-08-05T01:33:09.591Z,101754.31
2022-08-05T01:35:51.085Z,101758.81
2022-08-05T01:38:26.896Z,101762.69
2022-08-05T01:41:01.457Z,101757.44
2022-08-05T01:43:30.801Z,101774.31
2022-08-05T01:46:07.394Z,101768.03
2022-08-05T01:48:50.738Z,101763.19
2022-08-05T01:51:19.625Z,101766.50
2022-08-05T01:53:58.004Z,101763.41
2022-08-05T01:58:13.785Z,101762.41
2022-08-05T01:59:22.942Z,101763.41
2022-08-05T02:01:54.820Z,101768.31
2022-08-05T02:04:26.661Z,101760.81
2022-08-05T02:06:54.742Z,101752.47
2022-08-05T02:09:23.076Z,101756.75
2022-08-05T02:11:59.825Z,101759.47
2022-08-05T02:14:40.194Z,101765.13
2022-08-05T02:18:27.457Z,101768.09
2022-08-05T02:20:20.478Z,101773.78
2022-08-05T02:22:56.691Z,101766.03
2022-08-05T02:25:34.186Z,101768.47
2022-08-05T02:28:28.961Z,101770.53
2022-08-05T02:31:08.238Z,101768.94
2022-08-05T02:33:50.189Z,101775.16
2022-08-05T02:36:27.436Z,101767.84
2022-08-05T02:38:57.564Z,101768.72
2022-08-05T02:41:28.387Z,101764.25
2022-08-05T02:44:06.460Z,101761.56
2022-08-05T02:46:58.323Z,101763.47
2022-08-05T02:49:42.075Z,101755.78
2022-08-05T02:52:30.013Z,101765.75
2022-08-05T02:55:01.865Z,101751.19
2022-08-05T02:58:10.176Z,101758.81
2022-08-05T03:00:22.048Z,101756.72
2022-08-05T03:02:53.846Z,101762.59
2022-08-05T03:06:56.393Z,101766.69
2022-08-05T03:08:11.510Z,101764.56
2022-08-05T03:10:43.048Z,101761.56
2022-08-05T03:13:51.940Z,101760.31
2022-08-05T03:16:18.685Z,101765.13
2022-08-05T03:18:47.652Z,101751.88
2022-08-05T03:21:16.477Z,101758.06
2022-08-05T03:23:45.748Z,101756.56
2022-08-05T03:26:31.500Z,101763.31
2022-08-05T03:29:00.724Z,101757.44
2022-08-05T03:31:56.520Z,101755.09
2022-08-05T03:34:17.612Z,101761.63
2022-08-05T03:36:45.807Z,101757.44
2022-08-05T03:39:20.201Z,101748.28
2022-08-05T03:41:58.478Z,101744.41
2022-08-05T03:44:29.002Z,101745.69
2022-08-05T03:46:56.771Z,101746.22
2022-08-05T03:49:31.163Z,101745.75
2022-08-05T03:52:38.087Z,101746.31
2022-08-05T03:56:04.042Z,101740.00
2022-08-05T03:58:05.469Z,101748.84
2022-08-05T04:00:33.499Z,101736.47
2022-08-05T04:03:05.007Z,101740.97
2022-08-05T04:05:36.379Z,101737.44
2022-08-05T04:08:14.323Z,101745.69
2022-08-05T04:10:45.055Z,101738.84
2022-08-05T04:13:13.195Z,101744.63
2022-08-05T04:16:02.839Z,101750.19
2022-08-05T04:18:32.371Z,101739.78
2022-08-05T04:21:13.688Z,101740.00
2022-08-05T04:24:06.615Z,101755.53
2022-08-05T04:26:36.433Z,101756.06
2022-08-05T04:29:07.062Z,101747.72
2022-08-05T04:31:38.651Z,101745.59
2022-08-05T04:34:24.495Z,101747.69
2022-08-05T04:36:55.281Z,101748.88
2022-08-05T04:39:23.212Z,101748.03
2022-08-05T04:41:52.004Z,101755.72
2022-08-05T04:44:21.290Z,101749.19
2022-08-05T04:47:08.830Z,101764.06
2022-08-05T04:50:02.758Z,101760.50
2022-08-05T04:55:17.538Z,101760.75
2022-08-05T04:58:12.349Z,101765.97
2022-08-05T05:00:41.497Z,101765.00
2022-08-05T05:03:10.473Z,101775.69
2022-08-05T05:06:40.671Z,101768.66
2022-08-05T05:08:30.398Z,101774.75
2022-08-05T05:10:58.245Z,101779.13
2022-08-05T05:13:26.912Z,101782.56
2022-08-05T05:16:01.869Z,101786.72
2022-08-05T05:18:33.256Z,101788.97
2022-08-05T05:21:04.017Z,101777.94
2022-08-05T05:23:39.327Z,101780.09
2022-08-05T05:26:19.779Z,101788.44
2022-08-05T05:28:57.005Z,101791.66
2022-08-05T05:31:24.756Z,101793.16
2022-08-05T05:34:01.846Z,101796.22
2022-08-05T05:36:31.432Z,101808.31
2022-08-05T05:38:59.338Z,101813.22
2022-08-05T05:41:40.732Z,101818.59
2022-08-05T05:44:35.559Z,101822.47
2022-08-05T05:46:58.097Z,101829.81
2022-08-05T05:49:26.467Z,101838.13
2022-08-05T05:51:55.349Z,101836.44
2022-08-05T05:54:22.991Z,101838.88
2022-08-05T05:57:13.521Z,101845.22
2022-08-05T05:59:41.562Z,101853.09
2022-08-05T06:02:11.482Z,101854.09
2022-08-05T06:04:39.050Z,101854.72
2022-08-05T06:07:06.626Z,101859.47
2022-08-05T06:09:49.206Z,101860.41
2022-08-05T06:12:21.922Z,101854.28
2022-08-05T06:14:54.934Z,101864.50
2022-08-05T06:17:31.072Z,101870.22
2022-08-05T06:19:59.754Z,101866.75
2022-08-05T06:22:29.810Z,101864.00
2022-08-05T06:24:57.886Z,101877.03
2022-08-05T06:28:12.247Z,101876.91
2022-08-05T06:30:17.983Z,101877.03
2022-08-05T06:32:50.682Z,101877.94
2022-08-05T06:36:03.447Z,101874.34
2022-08-05T06:38:11.413Z,101883.84
2022-08-05T06:40:44.469Z,101891.34
2022-08-05T06:43:57.506Z,101888.59
2022-08-05T06:46:03.635Z,101896.41
2022-08-05T06:48:52.770Z,101892.94
2022-08-05T06:51:30.037Z,101889.34
2022-08-05T06:54:01.914Z,101901.13
2022-08-05T06:56:34.270Z,101898.81
2022-08-05T06:59:09.774Z,101900.00
2022-08-05T07:01:40.691Z,101898.13
2022-08-05T07:04:10.974Z,101903.63
2022-08-05T07:06:42.224Z,101908.19
2022-08-05T07:09:09.805Z,101909.06
2022-08-05T07:11:39.805Z,101912.91
2022-08-05T07:14:29.796Z,101914.84
2022-08-05T07:18:00.996Z,101910.88
2022-08-05T07:20:31.421Z,101920.63
2022-08-05T07:22:39.220Z,101912.66
2022-08-05T07:25:21.850Z,101920.97
2022-08-05T07:27:57.949Z,101926.91
2022-08-05T07:30:39.085Z,101928.44
2022-08-05T07:33:16.113Z,101925.41
2022-08-05T07:36:01.875Z,101924.38
2022-08-05T07:38:43.574Z,101928.63
2022-08-05T07:42:07.671Z,101929.16
2022-08-05T07:44:14.297Z,101926.00
2022-08-05T07:46:49.350Z,101925.78
2022-08-05T07:49:18.825Z,101929.31
2022-08-05T07:51:52.954Z,101922.38
2022-08-05T07:54:31.413Z,101925.97
2022-08-05T07:57:22.667Z,101932.88
2022-08-05T07:59:50.754Z,101931.53
2022-08-05T08:02:26.477Z,101936.50
2022-08-05T08:04:55.856Z,101949.66
2022-08-05T08:07:23.467Z,101947.53
2022-08-05T08:09:55.138Z,101953.94
2022-08-05T08:12:37.419Z,101950.06
2022-08-05T08:15:15.669Z,101955.72
2022-08-05T08:21:03.441Z,101958.34
2022-08-05T08:24:02.398Z,101958.09
2022-08-05T08:26:36.176Z,101959.69
2022-08-05T08:29:45.284Z,101965.97
2022-08-05T08:32:05.686Z,101958.06
2022-08-05T08:34:38.491Z,101966.25
2022-08-05T08:37:08.715Z,101964.75
2022-08-05T08:39:37.815Z,101961.69
2022-08-05T08:42:10.761Z,101966.97
2022-08-05T08:45:19.017Z,101964.81
2022-08-05T08:48:12.330Z,101968.69
2022-08-05T08:51:03.751Z,101973.84
2022-08-05T08:53:44.370Z,101970.22
2022-08-05T08:56:13.117Z,101982.16
2022-08-05T08:58:47.978Z,101969.63
2022-08-05T09:01:18.453Z,101980.00
2022-08-05T09:03:54.622Z,101977.53
2022-08-05T09:06:28.043Z,101980.28
2022-08-05T09:09:01.132Z,101979.97
2022-08-05T09:11:51.727Z,101982.00
2022-08-05T09:14:59.037Z,101982.88
2022-08-05T09:17:09.643Z,101976.59
2022-08-05T09:20:02.558Z,101983.13
2022-08-05T09:23:21.758Z,101989.72
2022-08-05T09:26:03.069Z,101992.44
2022-08-05T09:28:34.560Z,101990.69
2022-08-05T09:31:18.321Z,101996.06
2022-08-05T09:33:56.606Z,101992.91
2022-08-05T09:36:27.784Z,101995.09
2022-08-05T09:39:18.006Z,101989.91
2022-08-05T09:42:03.652Z,101989.56
2022-08-05T09:44:35.801Z,101985.94
2022-08-05T09:47:12.754Z,101980.31
2022-08-05T09:50:00.541Z,101990.09
2022-08-05T09:52:36.419Z,101995.91
2022-08-05T09:55:58.100Z,101990.44
2022-08-05T09:58:10.042Z,101998.22
2022-08-05T10:00:39.052Z,101999.06
2022-08-05T10:03:11.735Z,101996.22
2022-08-05T10:05:41.975Z,101987.97
2022-08-05T10:08:35.462Z,102002.22
2022-08-05T10:10:58.906Z,101997.53
2022-08-05T10:13:47.516Z,102005.06
2022-08-05T10:16:37.954Z,102006.84
2022-08-05T10:19:17.063Z,101998.56
2022-08-05T10:21:51.778Z,102009.38
2022-08-05T10:24:21.346Z,101992.97
2022-08-05T10:27:00.491Z,102001.97
2022-08-05T10:30:06.593Z,102008.81
2022-08-05T10:32:54.721Z,102013.94
2022-08-05T10:35:08.567Z,102011.25
2022-08-05T10:37:44.541Z,102017.44
2022-08-05T10:40:39.015Z,102020.13
2022-08-05T10:43:31.054Z,102012.47
2022-08-05T10:46:07.185Z,102014.59
2022-08-05T10:48:57.848Z,102010.06
2022-08-05T10:51:53.050Z,102014.97
2022-08-05T10:54:56.335Z,102021.84
2022-08-05T10:57:31.724Z,102017.84
2022-08-05T11:00:20.712Z,102022.06
2022-08-05T11:02:59.260Z,102018.63
2022-08-05T11:06:05.140Z,102024.84
2022-08-05T11:08:37.211Z,102028.50
2022-08-05T11:11:33.010Z,102021.94
2022-08-05T11:14:12.806Z,102033.91
2022-08-05T11:16:56.743Z,102033.78
2022-08-05T11:20:16.840Z,102027.94
2022-08-05T11:22:50.090Z,102037.72
2022-08-05T11:26:05.553Z,102038.88
2022-08-05T11:28:24.999Z,102049.88
2022-08-05T11:30:58.287Z,102037.94
2022-08-05T11:33:44.037Z,102049.38
2022-08-05T11:36:34.678Z,102050.19
2022-08-05T11:39:09.595Z,102051.75
2022-08-05T11:42:00.982Z,102054.63
2022-08-05T11:44:53.244Z,102055.50
2022-08-05T11:47:48.593Z,102060.31
2022-08-05T11:50:14.278Z,102050.25
2022-08-05T11:52:43.900Z,102062.72
2022-08-05T11:55:13.674Z,102054.84
2022-08-05T11:58:10.521Z,102054.91
2022-08-05T12:00:37.794Z,102057.78
2022-08-05T12:03:29.030Z,102060.31
2022-08-05T12:06:05.838Z,102065.06
2022-08-05T12:08:49.816Z,102065.28
2022-08-05T12:11:40.244Z,102068.09
2022-08-05T12:14:10.342Z,102069.38
2022-08-05T12:16:40.623Z,102058.81
2022-08-05T12:20:26.436Z,102055.09
2022-08-05T12:22:06.200Z,102067.34
2022-08-05T12:24:41.117Z,102067.53
2022-08-05T12:27:32.509Z,102064.63
2022-08-05T12:30:15.493Z,102062.50
2022-08-05T12:32:46.022Z,102070.56
2022-08-05T12:35:21.731Z,102064.97
2022-08-05T12:37:50.012Z,102067.91
2022-08-05T12:40:26.923Z,102075.31
2022-08-05T12:42:57.258Z,102068.72
2022-08-05T12:45:36.854Z,102072.09
2022-08-05T12:48:27.651Z,102070.84
2022-08-05T12:52:09.883Z,102080.16
2022-08-05T12:54:00.874Z,102090.63
2022-08-05T12:56:34.881Z,102088.75
2022-08-05T12:59:20.756Z,102089.84
2022-08-05T13:02:07.439Z,102089.13
2022-08-05T13:04:41.756Z,102096.19
2022-08-05T13:07:47.813Z,102095.34
2022-08-05T13:10:19.915Z,102096.66
2022-08-05T13:12:51.221Z,102106.09
2022-08-05T13:15:41.183Z,102109.53
2022-08-05T13:18:10.098Z,102101.00
2022-08-05T13:20:40.521Z,102109.81
2022-08-05T13:23:08.666Z,102111.66
2022-08-05T13:25:52.344Z,102103.88
2022-08-05T13:28:23.958Z,102107.84
2022-08-05T13:30:53.362Z,102110.09
2022-08-05T13:34:22.684Z,102103.69
2022-08-05T13:36:10.431Z,102111.00
2022-08-05T13:38:42.325Z,102106.81
2022-08-05T13:41:11.762Z,102109.31
2022-08-05T13:43:43.962Z,102120.91
2022-08-05T13:46:43.697Z,102112.88
2022-08-05T13:49:13.760Z,102107.19
2022-08-05T13:51:46.362Z,102111.22
2022-08-05T13:54:16.952Z,102099.16
2022-08-05T13:56:51.158Z,102097.25
2022-08-05T13:59:24.468Z,102108.69
2022-08-05T14:01:57.608Z,102097.53
2022-08-05T14:04:52.433Z,102096.88
2022-08-05T14:07:26.439Z,102112.31
2022-08-05T14:10:18.981Z,102104.59
2022-08-05T14:12:57.152Z,102105.56
2022-08-05T14:16:05.835Z,102103.16
2022-08-05T14:18:17.290Z,102110.59
2022-08-05T14:20:48.239Z,102114.03
2022-08-05T14:23:24.902Z,102114.97
2022-08-05T14:25:57.938Z,102125.34
2022-08-05T14:28:30.602Z,102119.31
2022-08-05T14:30:59.624Z,102113.88
2022-08-05T14:33:32.469Z,102118.47
2022-08-05T14:36:16.268Z,102125.78
2022-08-05T14:38:51.056Z,102127.97
2022-08-05T14:41:19.191Z,102133.44
2022-08-05T14:43:57.500Z,102146.25
2022-08-05T14:46:31.530Z,102153.63
2022-08-05T14:49:07.245Z,102164.44
2022-08-05T14:51:42.493Z,102166.81
2022-08-05T14:54:28.001Z,102166.78
2022-08-05T14:56:58.288Z,102167.88
2022-08-05T14:59:29.578Z,102167.53
2022-08-05T15:02:15.871Z,102172.66
2022-08-05T15:04:44.808Z,102165.16
2022-08-05T15:08:05.719Z,102172.63
2022-08-05T15:10:01.581Z,102170.16
2022-08-05T15:12:41.071Z,102169.28
2022-08-05T15:15:55.386Z,102167.09
2022-08-05T15:18:06.607Z,102172.19
2022-08-05T15:20:34.235Z,102172.97
2022-08-05T15:23:11.267Z,102162.66
2022-08-05T15:25:52.088Z,102186.00
2022-08-05T15:28:27.033Z,102184.31
2022-08-05T15:30:57.831Z,102179.38
2022-08-05T15:34:05.247Z,102176.78
2022-08-05T15:36:17.652Z,102177.59
2022-08-05T15:40:41.617Z,102184.47
2022-08-05T15:41:57.334Z,102175.13
2022-08-05T15:44:28.100Z,102176.47
2022-08-05T15:47:01.133Z,102172.88
2022-08-05T15:49:48.105Z,102178.41
2022-08-05T15:52:29.497Z,102179.28
2022-08-05T15:55:08.312Z,102179.56
2022-08-05T15:57:38.284Z,102175.63
2022-08-05T16:00:10.051Z,102175.47
2022-08-05T16:02:39.137Z,102182.72
2022-08-05T16:05:11.235Z,102177.34
2022-08-05T16:07:39.008Z,102180.31
2022-08-05T16:10:14.449Z,102185.50
2022-08-05T16:12:42.319Z,102183.28
2022-08-05T16:15:10.596Z,102184.91
2022-08-05T16:17:57.538Z,102192.72
2022-08-05T16:20:26.279Z,102195.00
2022-08-05T16:22:55.759Z,102202.50
2022-08-05T16:25:32.204Z,102225.28
2022-08-05T16:28:05.553Z,102212.16
2022-08-05T16:30:35.992Z,102221.00
2022-08-05T16:33:04.245Z,102218.19
2022-08-05T16:35:32.405Z,102209.84
2022-08-05T16:38:24.654Z,102221.50
2022-08-05T16:40:55.028Z,102224.19
2022-08-05T16:43:25.080Z,102220.56
2022-08-05T16:46:07.177Z,102218.28
2022-08-05T16:48:40.646Z,102218.44
2022-08-05T16:51:09.753Z,102217.56
2022-08-05T16:54:04.335Z,102212.94
2022-08-05T16:56:29.685Z,102223.34
2022-08-05T16:58:58.015Z,102230.56
2022-08-05T17:01:27.990Z,102232.19
2022-08-05T17:04:15.078Z,102239.16
2022-08-05T17:06:42.805Z,102230.47
2022-08-05T17:09:21.255Z,102235.06
2022-08-05T17:14:56.338Z,102238.84
2022-08-05T17:17:42.661Z,102244.09
2022-08-05T17:20:39.282Z,102242.78
2022-08-05T17:23:08.775Z,102240.66
2022-08-05T17:25:56.650Z,102248.00
2022-08-05T17:28:30.415Z,102250.41
2022-08-05T17:30:58.118Z,102252.72
2022-08-05T17:33:26.239Z,102254.34
2022-08-05T17:36:32.799Z,102252.69
2022-08-05T17:39:24.299Z,102253.06
2022-08-05T17:42:28.612Z,102258.81
2022-08-05T17:45:17.857Z,102261.41
2022-08-05T17:47:54.561Z,102262.88
2022-08-05T17:50:28.558Z,102258.13
2022-08-05T17:52:59.755Z,102265.13
2022-08-05T17:55:37.709Z,102262.28
2022-08-05T17:58:13.235Z,102274.88
2022-08-05T18:00:47.877Z,102277.84
2022-08-05T18:06:10.964Z,102273.28
2022-08-05T18:08:44.555Z,102270.09
2022-08-05T18:11:23.934Z,102279.81
2022-08-05T18:13:57.652Z,102275.69
2022-08-05T18:16:27.525Z,102280.16
2022-08-05T18:18:55.169Z,102283.03
2022-08-05T18:21:26.022Z,102287.25
2022-08-05T18:23:55.423Z,102292.16
2022-08-05T18:26:29.131Z,102291.31
2022-08-05T18:28:57.797Z,102299.22
2022-08-05T18:31:25.429Z,102283.56
2022-08-05T18:34:01.482Z,102288.41
2022-08-05T18:36:29.797Z,102292.13
2022-08-05T18:38:57.655Z,102291.56
2022-08-05T18:41:56.635Z,102297.66
2022-08-05T18:44:13.477Z,102293.13
2022-08-05T18:47:01.534Z,102298.53
2022-08-05T18:49:57.836Z,102298.09
2022-08-05T18:52:50.931Z,102311.19
2022-08-05T18:55:21.576Z,102301.78
2022-08-05T18:57:53.285Z,102309.88
2022-08-05T19:00:29.044Z,102311.56
2022-08-05T19:03:03.230Z,102313.84
2022-08-05T19:06:11.284Z,102318.22
2022-08-05T19:08:30.160Z,102318.41
2022-08-05T19:10:59.735Z,102315.09
2022-08-05T19:13:35.599Z,102330.41
2022-08-05T19:16:05.142Z,102323.97
2022-08-05T19:18:53.515Z,102332.44
2022-08-05T19:21:27.586Z,102326.97
2022-08-05T19:24:05.239Z,102335.84
2022-08-05T19:26:54.323Z,102331.25
2022-08-05T19:29:35.724Z,102340.00
2022-08-05T19:32:11.522Z,102336.13
2022-08-05T19:34:39.662Z,102349.38
2022-08-05T19:37:07.364Z,102354.41
2022-08-05T19:39:50.538Z,102357.50
2022-08-05T19:42:35.340Z,102359.97
2022-08-05T19:45:06.092Z,102360.63
2022-08-05T19:47:37.671Z,102365.44
2022-08-05T19:50:07.781Z,102372.03
2022-08-05T19:52:38.343Z,102376.97
2022-08-05T19:55:07.261Z,102383.84
2022-08-05T19:58:14.659Z,102383.34
2022-08-05T20:00:52.904Z,102389.13
2022-08-05T20:03:20.633Z,102392.94
2022-08-05T20:05:51.294Z,102405.78
2022-08-05T20:08:20.458Z,102404.19
2022-08-05T20:10:53.124Z,102402.59
2022-08-05T20:13:30.041Z,102405.53
2022-08-05T20:16:09.985Z,102421.34
2022-08-05T20:18:38.630Z,102428.19
2022-08-05T21:24:19.802Z,102453.78
2022-08-05T21:26:53.293Z,102444.09
2022-08-05T21:29:31.999Z,102457.66
2022-08-05T21:32:02.316Z,102457.03
2022-08-05T21:34:31.662Z,102458.25
2022-08-05T21:37:00.984Z,102450.53
2022-08-05T21:39:29.864Z,102449.16
2022-08-05T21:42:01.705Z,102446.94
2022-08-05T21:44:33.031Z,102450.94
2022-08-05T21:47:01.313Z,102457.75
2022-08-05T21:49:48.485Z,102456.50
2022-08-05T21:52:26.727Z,102460.47
2022-08-05T21:54:57.555Z,102453.09
2022-08-05T21:57:42.647Z,102458.91
2022-08-05T22:00:11.879Z,102459.81
2022-08-05T22:02:43.430Z,102459.50
2022-08-05T22:05:12.450Z,102460.47
2022-08-05T22:07:59.133Z,102460.47
2022-08-05T22:10:29.048Z,102454.03
2022-08-05T22:12:59.037Z,102460.13
2022-08-05T22:16:00.529Z,102464.28
2022-08-05T22:18:25.938Z,102458.59
2022-08-05T22:20:53.918Z,102455.91
2022-08-05T22:24:01.293Z,102461.16
2022-08-05T22:26:50.510Z,102460.44
2022-08-05T22:29:26.725Z,102465.06
2022-08-05T22:31:59.765Z,102468.72
2022-08-05T22:34:32.357Z,102468.81
2022-08-05T22:37:00.268Z,102471.50
2022-08-05T22:39:33.371Z,102476.16
2022-08-05T22:42:10.738Z,102465.50
2022-08-05T22:44:40.313Z,102474.63
2022-08-05T22:47:08.296Z,102476.81
2022-08-05T22:50:19.698Z,102479.72
2022-08-05T22:52:32.510Z,102486.72
2022-08-05T22:55:04.358Z,102488.50
2022-08-05T22:57:52.190Z,102490.97
2022-08-05T23:00:22.186Z,102488.19
2022-08-05T23:02:53.536Z,102492.50
2022-08-05T23:05:22.630Z,102491.84
2022-08-05T23:07:51.278Z,102470.69
2022-08-05T23:10:20.881Z,102482.84
2022-08-05T23:12:54.755Z,102482.44
2022-08-05T23:15:29.928Z,102479.19
2022-08-05T23:18:06.193Z,102486.53
2022-08-05T23:20:39.938Z,102484.25
2022-08-05T23:23:10.952Z,102490.69
2022-08-05T23:25:54.716Z,102478.25
2022-08-05T23:28:28.667Z,102486.94
2022-08-05T23:31:15.729Z,102484.13
2022-08-05T23:34:05.848Z,102488.34
2022-08-05T23:36:39.720Z,102491.75
2022-08-05T23:39:17.314Z,102493.50
2022-08-05T23:41:59.982Z,102497.78
2022-08-05T23:44:27.847Z,102495.84
2022-08-05T23:47:02.586Z,102495.72
2022-08-05T23:49:45.655Z,102501.00
2022-08-05T23:52:32.092Z,102495.00
2022-08-05T23:55:09.570Z,102495.63
2022-08-05T23:57:38.598Z,102490.91
